Time;durP1;ratioP1;P1;durP2;ratioP2;P2;SDS_P1;SDS_P2;PMS_P1;PMS_P2;Temp;Humidity;BMP_temperature;BMP_pressure;BME280_temperature;BME280_humidity;BME280_pressure;Samples;Min_cycle;Max_cycle;Signal;HPM_P1;HPM_P2
2022/05/20 00:00:11;;;;;;;5.97;3.33;;;;;;;20.69;64.22;99102.78;4978964;28;20699;-56
2022/05/20 00:02:39;;;;;;;4.43;2.97;;;;;;;20.62;64.24;99098.31;4978459;28;20205;-56
2022/05/20 00:05:06;;;;;;;5.97;3.30;;;;;;;20.57;65.45;99095.47;4979066;28;20190;-54
2022/05/20 00:07:35;;;;;;;5.60;3.60;;;;;;;20.52;66.18;99094.44;4979098;28;20180;-57
2022/05/20 00:10:03;;;;;;;4.67;3.07;;;;;;;20.46;66.23;99085.47;4979044;28;20651;-55
2022/05/20 00:12:30;;;;;;;5.03;3.20;;;;;;;20.43;66.58;99091.19;4976886;28;20205;-55
2022/05/20 00:14:57;;;;;;;8.83;4.00;;;;;;;20.37;67.05;99079.53;4976440;28;20188;-56
2022/05/20 00:17:24;;;;;;;8.03;3.77;;;;;;;20.39;66.86;99085.44;4976378;28;20202;-56
2022/05/20 00:19:52;;;;;;;7.63;3.63;;;;;;;20.33;67.50;99084.44;4976423;28;20245;-56
2022/05/20 00:22:19;;;;;;;8.83;4.10;;;;;;;20.24;67.40;99083.00;4975829;28;20614;-54
2022/05/20 00:27:40;;;;;;;5.80;3.47;;;;;;;20.14;67.03;99082.59;4912633;28;20676;-55
2022/05/20 00:30:08;;;;;;;6.57;3.97;;;;;;;20.19;66.37;99082.78;4965780;28;20201;-53
2022/05/20 00:32:35;;;;;;;6.77;3.77;;;;;;;20.16;67.41;99077.91;4968238;28;20213;-53
2022/05/20 00:35:02;;;;;;;9.63;3.87;;;;;;;20.12;68.19;99079.31;4967505;28;20286;-52
2022/05/20 00:37:29;;;;;;;6.97;3.70;;;;;;;20.11;67.45;99069.75;4966804;28;20267;-53
2022/05/20 00:39:57;;;;;;;6.77;3.73;;;;;;;20.08;67.37;99072.78;4966814;28;20216;-54
2022/05/20 00:42:24;;;;;;;4.83;3.57;;;;;;;19.99;67.65;99075.63;4965765;28;20223;-54
2022/05/20 00:44:52;;;;;;;6.10;4.23;;;;;;;19.94;68.50;99071.97;4965318;28;20719;-54
2022/05/20 00:47:20;;;;;;;7.13;4.20;;;;;;;19.79;68.83;99069.44;4963877;28;20197;-54
2022/05/20 00:49:53;;;;;;;8.13;4.10;;;;;;;19.77;68.05;99067.81;4965906;28;20200;-54
2022/05/20 00:52:22;;;;;;;5.70;3.97;;;;;;;19.68;68.75;99060.25;4965433;28;20290;-52
2022/05/20 00:54:54;;;;;;;6.33;4.43;;;;;;;19.62;69.68;99060.03;4964858;28;20206;-54
2022/05/20 00:57:24;;;;;;;7.90;4.03;;;;;;;19.52;70.22;99053.50;4963813;28;20197;-54
2022/05/20 00:59:57;;;;;;;7.93;4.07;;;;;;;19.45;69.71;99054.28;4965257;28;20278;-53
2022/05/20 01:02:26;;;;;;;7.60;4.50;;;;;;;19.38;70.78;99057.91;4965279;28;20215;-52
2022/05/20 01:04:56;;;;;;;5.70;4.43;;;;;;;19.32;70.96;99057.69;4967144;28;20218;-54
2022/05/20 01:07:24;;;;;;;4.80;4.30;;;;;;;19.25;71.32;99048.91;4974425;28;20190;-54
2022/05/20 01:09:51;;;;;;;8.50;4.33;;;;;;;19.19;72.00;99052.31;4974125;28;20666;-54
2022/05/20 01:12:18;;;;;;;7.50;4.23;;;;;;;19.16;72.25;99048.25;4973706;28;20225;-52
2022/05/20 01:14:46;;;;;;;5.47;4.13;;;;;;;19.19;71.45;99039.09;4974198;28;20205;-52
2022/05/20 01:17:15;;;;;;;7.93;4.60;;;;;;;19.14;72.06;99044.16;4974245;28;20194;-55
2022/05/20 01:19:46;;;;;;;8.67;4.43;;;;;;;19.08;72.98;99044.97;4973961;28;20695;-54
2022/05/20 01:22:26;;;;;;;10.53;4.50;;;;;;;18.96;74.15;99042.88;4973853;28;20219;-54
2022/05/20 01:24:54;;;;;;;8.55;4.70;;;;;;;18.91;73.87;99045.25;4973077;28;20934;-54
2022/05/20 01:27:22;;;;;;;7.53;4.20;;;;;;;18.82;74.16;99046.44;4973849;28;20194;-53
2022/05/20 01:29:49;;;;;;;10.23;4.63;;;;;;;18.72;74.28;99052.88;4973913;28;20234;-54
2022/05/20 01:32:16;;;;;;;10.07;5.10;;;;;;;18.68;75.28;99054.28;4968927;28;20302;-54
2022/05/20 01:34:43;;;;;;;9.10;4.70;;;;;;;18.62;76.27;99056.84;4954619;28;20272;-53
2022/05/20 01:37:10;;;;;;;7.63;5.03;;;;;;;18.59;75.88;99050.94;4954546;29;20648;-54
2022/05/20 01:39:37;;;;;;;9.10;4.13;;;;;;;18.56;75.74;99055.81;4954424;29;20642;-53
2022/05/20 01:42:11;;;;;;;6.87;4.73;;;;;;;18.51;75.70;99056.41;4954324;29;20207;-54
2022/05/20 01:44:43;;;;;;;5.37;4.20;;;;;;;18.53;76.05;99053.53;4954532;29;20711;-53
2022/05/20 01:47:17;;;;;;;9.67;4.80;;;;;;;18.46;75.80;99061.44;4954516;29;20192;-52
2022/05/20 01:49:50;;;;;;;5.93;4.50;;;;;;;18.40;77.41;99063.00;4954372;29;20707;-52
2022/05/20 01:52:24;;;;;;;5.70;4.70;;;;;;;18.35;77.40;99062.75;4953993;29;20279;-54
2022/05/20 01:54:59;;;;;;;7.67;4.60;;;;;;;18.31;77.69;99063.34;4962050;28;20205;-53
2022/05/20 01:57:34;;;;;;;9.03;4.63;;;;;;;18.34;77.33;99065.59;4965954;28;20196;-54
2022/05/20 02:00:07;;;;;;;7.73;5.00;;;;;;;18.29;77.08;99055.59;4972644;28;20352;-53
2022/05/20 02:02:42;;;;;;;8.33;4.80;;;;;;;18.28;77.38;99057.44;4972945;28;20214;-51
2022/05/20 02:05:17;;;;;;;8.77;4.90;;;;;;;18.32;78.36;99054.41;4973380;28;20510;-54
2022/05/20 02:07:50;;;;;;;6.00;4.70;;;;;;;18.36;78.44;99053.81;4973414;28;20716;-53
2022/05/20 02:10:25;;;;;;;9.27;5.27;;;;;;;18.34;78.70;99060.31;4973248;28;20190;-54
2022/05/20 02:12:57;;;;;;;8.23;4.77;;;;;;;18.34;79.07;99058.47;4972615;28;20218;-53
2022/05/20 02:15:29;;;;;;;5.60;4.63;;;;;;;18.34;79.30;99050.56;4973391;28;20200;-52
2022/05/20 02:18:00;;;;;;;8.80;4.60;;;;;;;18.31;79.56;99052.78;4972983;28;20202;-52
2022/05/20 02:20:33;;;;;;;6.73;4.70;;;;;;;18.36;79.43;99053.81;4973212;28;20252;-54
2022/05/20 02:23:03;;;;;;;7.43;4.73;;;;;;;18.33;79.51;99046.28;4972584;28;20272;-52
2022/05/20 02:25:33;;;;;;;8.27;4.93;;;;;;;18.34;80.05;99042.63;4973113;28;20222;-53
2022/05/20 02:28:25;;;;;;;7.00;4.90;;;;;;;18.32;80.20;99041.19;4968847;28;20345;-55
2022/05/20 02:30:55;;;;;;;6.10;4.60;;;;;;;18.33;81.25;99042.84;4963664;28;20201;-55
2022/05/20 02:33:25;;;;;;;9.90;4.70;;;;;;;18.26;80.34;99035.66;4970899;28;20673;-53
2022/05/20 02:35:53;;;;;;;8.87;5.00;;;;;;;18.21;80.30;99039.88;4969832;28;20202;-55
2022/05/20 02:38:23;;;;;;;10.37;4.83;;;;;;;18.13;81.12;99033.72;4973305;28;20604;-56
2022/05/20 02:40:52;;;;;;;13.30;5.37;;;;;;;18.09;81.20;99031.66;4957607;28;20252;-54
2022/05/20 02:43:22;;;;;;;8.97;5.10;;;;;;;18.05;81.47;99027.75;4973080;28;20223;-53
2022/05/20 02:45:51;;;;;;;9.13;5.03;;;;;;;18.05;81.72;99033.84;4973341;28;20241;-53
2022/05/20 02:48:20;;;;;;;7.30;5.00;;;;;;;18.09;82.53;99035.09;4973511;28;20189;-55
2022/05/20 02:50:49;;;;;;;12.77;5.30;;;;;;;18.01;82.41;99043.19;4973192;28;20209;-54
2022/05/20 02:53:16;;;;;;;6.73;4.87;;;;;;;17.97;82.16;99041.88;4972233;28;20216;-52
2022/05/20 02:55:43;;;;;;;9.13;4.97;;;;;;;17.93;82.24;99045.91;4972777;28;20273;-53
2022/05/20 03:04:10;;;;;;;8.30;5.43;;;;;;;17.84;82.98;99053.94;4973210;28;20194;-55
2022/05/20 03:06:37;;;;;;;6.00;5.07;;;;;;;17.79;82.53;99048.41;4973140;28;20533;-55
2022/05/20 03:09:04;;;;;;;9.03;5.10;;;;;;;17.81;83.09;99053.50;4973344;28;20185;-54
2022/05/20 03:11:31;;;;;;;6.97;5.17;;;;;;;17.78;82.62;99052.06;4972805;28;20209;-55
2022/05/20 03:14:00;;;;;;;10.67;5.20;;;;;;;17.76;83.77;99054.06;4973273;28;20253;-55
2022/05/20 03:16:27;;;;;;;6.67;5.00;;;;;;;17.71;83.21;99051.97;4973128;28;20246;-55
2022/05/20 03:18:55;;;;;;;8.93;5.23;;;;;;;17.70;83.85;99047.69;4972884;28;20248;-53
2022/05/20 03:21:22;;;;;;;8.47;5.50;;;;;;;17.69;83.39;99045.25;4972755;28;20220;-52
2022/05/20 03:23:49;;;;;;;10.33;5.13;;;;;;;17.65;83.82;99051.91;4973193;28;20190;-52
2022/05/20 03:26:16;;;;;;;8.20;4.93;;;;;;;17.61;83.95;99042.72;4973220;28;20195;-55
2022/05/20 03:28:43;;;;;;;8.53;5.47;;;;;;;17.62;83.32;99050.44;4973092;28;20216;-55
2022/05/20 03:31:13;;;;;;;9.70;5.40;;;;;;;17.61;84.09;99046.19;4971368;28;20202;-56
2022/05/20 03:33:41;;;;;;;7.83;4.80;;;;;;;17.60;84.81;99041.09;4972954;28;20190;-55
2022/05/20 03:36:08;;;;;;;14.30;6.00;;;;;;;17.59;85.81;99040.25;4972945;28;20204;-55
2022/05/20 03:38:36;;;;;;;10.03;5.50;;;;;;;17.52;85.34;99037.56;4972859;28;20214;-56
2022/05/20 03:41:04;;;;;;;10.10;5.60;;;;;;;17.56;84.61;99044.09;4972777;28;20195;-55
2022/05/20 03:43:32;;;;;;;7.30;5.10;;;;;;;17.50;85.15;99044.84;4972965;28;20237;-56
2022/05/20 03:46:00;;;;;;;9.13;5.13;;;;;;;17.47;85.27;99045.22;4973010;28;20186;-53
2022/05/20 03:48:29;;;;;;;9.23;5.10;;;;;;;17.47;84.76;99041.78;4974140;28;20273;-56
2022/05/20 03:50:57;;;;;;;7.20;4.67;;;;;;;17.46;84.39;99038.31;4976017;28;20189;-55
2022/05/20 03:53:24;;;;;;;8.83;5.43;;;;;;;17.50;84.62;99036.09;4975521;28;20219;-54
2022/05/20 03:55:53;;;;;;;7.47;5.33;;;;;;;17.53;84.79;99033.09;4976055;28;20680;-53
2022/05/20 03:58:20;;;;;;;8.70;5.33;;;;;;;17.65;84.95;99039.53;4975816;28;20252;-54
2022/05/20 04:03:30;;;;;;;8.70;5.40;;;;;;;17.68;84.91;99033.88;4954145;28;20898;-55
2022/05/20 04:06:00;;;;;;;9.83;4.83;;;;;;;17.69;84.36;99027.59;4976465;28;20200;-55
2022/05/20 04:08:30;;;;;;;7.37;4.60;;;;;;;17.69;84.25;99034.69;4976286;28;20194;-55
2022/05/20 04:10:57;;;;;;;12.50;4.77;;;;;;;17.68;83.89;99033.06;4976446;28;20256;-54
2022/05/20 04:13:25;;;;;;;9.87;4.83;;;;;;;17.71;83.77;99043.25;4974462;28;20214;-55
2022/05/20 04:15:54;;;;;;;10.53;5.40;;;;;;;17.71;85.37;99043.25;4976159;28;20190;-54
2022/05/20 04:18:22;;;;;;;8.67;5.53;;;;;;;17.75;85.51;99041.88;4976004;28;20211;-55
2022/05/20 04:20:50;;;;;;;10.40;5.67;;;;;;;17.79;84.89;99039.66;4976044;28;20197;-53
2022/05/20 04:23:20;;;;;;;8.53;5.17;;;;;;;17.85;85.45;99041.56;4975460;28;20210;-55
2022/05/20 04:26:05;;;;;;;12.13;6.50;;;;;;;17.90;85.29;99046.28;4976244;28;20675;-55
2022/05/20 04:28:32;;;;;;;8.57;5.23;;;;;;;17.93;84.37;99045.91;4976191;28;20216;-52
2022/05/20 04:31:02;;;;;;;11.97;5.07;;;;;;;17.96;84.81;99042.91;4975713;28;20201;-54
2022/05/20 04:33:30;;;;;;;8.80;4.97;;;;;;;18.00;84.13;99052.09;4973285;28;20218;-54
2022/05/20 04:35:59;;;;;;;10.53;5.07;;;;;;;18.06;84.35;99047.88;4973763;28;20190;-53
2022/05/20 04:38:27;;;;;;;6.70;5.03;;;;;;;18.11;84.51;99048.13;4973975;28;20222;-53
2022/05/20 04:49:10;;;;;;;7.77;5.33;;;;;;;18.27;84.57;99054.97;4955854;29;20250;-52
2022/05/20 04:51:40;;;;;;;11.53;5.73;;;;;;;18.35;85.13;99054.03;4955047;29;20232;-55
2022/05/20 04:56:55;;;;;;;6.83;5.57;;;;;;;18.45;85.03;99065.09;4955434;29;20196;-55
2022/05/20 04:59:23;;;;;;;7.00;5.80;;;;;;;18.50;84.53;99062.69;4954964;28;20207;-54
2022/05/20 05:01:50;;;;;;;10.33;5.63;;;;;;;18.57;84.73;99065.38;4955720;29;20210;-55
2022/05/20 05:04:18;;;;;;;8.07;5.00;;;;;;;18.61;84.36;99066.63;4955888;29;20197;-55
2022/05/20 05:06:46;;;;;;;10.87;6.20;;;;;;;18.68;84.44;99066.66;4956012;28;20219;-55
2022/05/20 05:09:14;;;;;;;10.67;6.43;;;;;;;18.73;85.72;99058.97;4955845;29;20192;-54
2022/05/20 05:11:41;;;;;;;8.97;5.60;;;;;;;18.73;84.80;99057.16;4955410;28;20233;-55
2022/05/20 05:14:09;;;;;;;9.83;5.27;;;;;;;18.82;84.21;99057.00;4955752;28;20206;-53
2022/05/20 05:16:39;;;;;;;8.93;5.73;;;;;;;18.89;83.84;99055.22;4954347;29;20199;-55
2022/05/20 05:19:07;;;;;;;8.33;5.70;;;;;;;18.97;83.45;99055.09;4955556;29;20211;-53
2022/05/20 05:21:35;;;;;;;9.93;5.30;;;;;;;19.05;83.34;99062.03;4953844;29;20240;-55
2022/05/20 05:24:04;;;;;;;10.80;6.17;;;;;;;19.12;83.78;99062.91;4955385;29;20200;-55
2022/05/20 05:26:34;;;;;;;7.93;5.27;;;;;;;19.21;83.31;99058.25;4955382;29;20654;-53
2022/05/20 05:29:02;;;;;;;7.97;5.17;;;;;;;19.26;81.86;99058.47;4955800;29;20268;-52
2022/05/20 05:31:30;;;;;;;6.77;4.90;;;;;;;19.33;82.17;99063.81;4955271;29;20709;-55
2022/05/20 05:33:57;;;;;;;7.70;5.60;;;;;;;19.39;82.75;99068.31;4955385;29;20267;-53
2022/05/20 05:36:24;;;;;;;10.23;5.17;;;;;;;19.39;82.18;99072.78;4955253;29;20595;-52
2022/05/20 05:39:11;;;;;;;8.63;5.37;;;;;;;19.47;82.18;99068.16;4954857;29;20269;-55
2022/05/20 05:41:38;;;;;;;8.43;5.10;;;;;;;19.49;83.82;99067.94;4954767;29;20212;-55
2022/05/20 05:44:06;;;;;;;6.73;5.20;;;;;;;19.54;82.84;99059.41;4955228;28;20213;-55
2022/05/20 05:46:34;;;;;;;9.27;5.83;;;;;;;19.57;82.92;99064.31;4955235;29;20205;-54
2022/05/20 05:49:03;;;;;;;9.27;4.90;;;;;;;19.62;81.57;99052.09;4954856;28;20235;-55
2022/05/20 05:51:30;;;;;;;8.07;6.03;;;;;;;19.73;80.78;99058.63;4953781;29;20300;-53
2022/05/20 05:53:57;;;;;;;8.27;5.93;;;;;;;19.87;80.00;99058.66;4954450;29;20226;-54
2022/05/20 05:56:26;;;;;;;8.50;5.40;;;;;;;20.01;79.46;99057.69;4954287;29;20258;-54
2022/05/20 05:58:53;;;;;;;8.30;5.67;;;;;;;20.16;79.15;99064.66;4954613;29;20769;-55
2022/05/20 06:01:21;;;;;;;10.90;5.10;;;;;;;20.34;77.79;99062.22;4954567;29;20185;-56
2022/05/20 06:03:48;;;;;;;8.97;5.23;;;;;;;20.54;77.47;99061.41;4955240;28;20193;-54
2022/05/20 06:06:15;;;;;;;5.90;5.00;;;;;;;20.67;76.34;99060.56;4954600;28;20277;-53
2022/05/20 06:08:43;;;;;;;10.23;4.63;;;;;;;20.85;76.39;99062.59;4954781;28;20287;-55
2022/05/20 06:11:10;;;;;;;8.30;4.50;;;;;;;21.03;75.03;99064.59;4953672;28;20277;-56
2022/05/20 06:13:57;;;;;;;9.87;4.90;;;;;;;21.23;73.87;99063.69;4955075;29;20552;-54
2022/05/20 06:16:24;;;;;;;8.20;5.20;;;;;;;21.41;73.39;99070.19;4954340;29;20196;-54
2022/05/20 06:18:52;;;;;;;8.67;4.97;;;;;;;21.56;72.35;99065.41;4954641;29;20705;-56
2022/05/20 06:21:19;;;;;;;8.63;4.97;;;;;;;21.74;71.10;99077.22;4952935;29;20208;-55
2022/05/20 06:23:46;;;;;;;10.40;5.30;;;;;;;21.88;71.42;99067.31;4954497;28;20273;-55
2022/05/20 06:26:14;;;;;;;7.73;4.97;;;;;;;21.96;71.53;99072.38;4954427;29;20200;-55
2022/05/20 06:28:42;;;;;;;6.90;5.10;;;;;;;22.14;69.49;99078.78;4954147;29;20271;-54
2022/05/20 06:31:10;;;;;;;9.97;5.10;;;;;;;22.25;69.85;99078.94;4954081;29;20191;-55
2022/05/20 06:33:38;;;;;;;15.50;5.23;;;;;;;22.42;68.03;99089.00;4965183;28;20245;-55
2022/05/20 06:41:35;;;;;;;10.20;5.70;;;;;;;22.71;63.13;99092.06;4965037;28;20220;-56
2022/05/20 06:44:03;;;;;;;11.63;5.40;;;;;;;22.88;64.46;99089.66;4973298;28;20191;-54
2022/05/20 06:46:32;;;;;;;9.77;5.87;;;;;;;22.74;63.94;99094.28;4973500;28;20186;-54
2022/05/20 06:49:01;;;;;;;10.97;5.83;;;;;;;22.92;65.89;99095.34;4959200;28;20245;-55
2022/05/20 06:51:31;;;;;;;9.03;5.87;;;;;;;22.98;66.73;99095.28;4959803;28;20222;-55
2022/05/20 06:54:01;;;;;;;11.03;6.20;;;;;;;23.10;63.84;99092.72;4963000;28;20531;-53
2022/05/20 06:56:30;;;;;;;13.17;5.70;;;;;;;23.21;63.83;99090.34;4963670;28;20599;-55
2022/05/20 06:58:58;;;;;;;9.57;5.47;;;;;;;23.28;64.00;99091.91;4962476;28;20199;-56
2022/05/20 07:01:26;;;;;;;10.30;5.93;;;;;;;23.44;60.93;99090.47;4961122;28;20328;-55
2022/05/20 07:04:13;;;;;;;10.67;5.30;;;;;;;23.56;60.36;99087.06;4961782;28;20298;-56
2022/05/20 07:06:40;;;;;;;9.87;5.37;;;;;;;23.65;59.61;99087.59;4955970;28;20227;-54
2022/05/20 07:09:07;;;;;;;12.27;5.43;;;;;;;23.79;62.07;99085.53;4972958;28;20193;-56
2022/05/20 07:11:35;;;;;;;10.93;6.60;;;;;;;23.58;59.20;99085.00;4972640;28;20219;-55
2022/05/20 07:14:03;;;;;;;9.43;5.80;;;;;;;23.77;60.77;99075.13;4964961;28;20726;-56
2022/05/20 07:16:30;;;;;;;9.57;5.37;;;;;;;23.82;61.92;99083.25;4972809;28;20193;-53
2022/05/20 07:18:58;;;;;;;8.70;5.63;;;;;;;23.91;62.01;99078.41;4964738;28;20204;-55
2022/05/20 07:21:27;;;;;;;11.43;5.73;;;;;;;23.94;61.74;99069.94;4966778;28;20541;-55
2022/05/20 07:23:55;;;;;;;9.43;5.87;;;;;;;24.04;58.98;99074.75;4975108;28;20193;-55
2022/05/20 07:26:22;;;;;;;6.87;5.70;;;;;;;23.97;58.42;99087.31;4968780;28;20672;-55
2022/05/20 07:28:50;;;;;;;13.30;6.10;;;;;;;24.08;58.92;99077.78;4976637;28;20272;-55
2022/05/20 07:31:17;;;;;;;7.10;5.37;;;;;;;24.28;58.87;99072.94;4971803;28;20682;-56
2022/05/20 07:33:44;;;;;;;9.73;5.50;;;;;;;24.15;59.87;99073.16;4957403;29;20632;-55
2022/05/20 07:36:11;;;;;;;10.40;6.10;;;;;;;23.97;59.60;99063.34;4957503;29;20269;-53
2022/05/20 07:38:39;;;;;;;7.33;5.03;;;;;;;24.21;62.34;99058.09;4957432;29;20196;-56
2022/05/20 07:41:07;;;;;;;7.63;5.37;;;;;;;24.45;60.63;99064.25;4955730;28;20232;-51
2022/05/20 07:43:34;;;;;;;7.47;5.13;;;;;;;24.35;61.51;99061.38;4970181;28;20199;-53
2022/05/20 07:46:02;;;;;;;8.50;5.70;;;;;;;24.56;61.44;99060.78;4966311;28;20250;-52
2022/05/20 07:48:30;;;;;;;6.87;5.70;;;;;;;24.54;60.80;99062.06;4976710;28;20188;-53
2022/05/20 07:51:01;;;;;;;9.43;5.93;;;;;;;24.72;61.02;99069.97;4967990;28;20195;-55
2022/05/20 07:53:33;;;;;;;10.43;5.90;;;;;;;24.91;56.64;99073.31;4976081;28;20199;-55
2022/05/20 07:56:05;;;;;;;7.87;5.57;;;;;;;25.01;57.12;99078.06;4976466;28;20209;-54
2022/05/20 07:58:36;;;;;;;11.70;5.20;;;;;;;25.25;61.27;99082.56;4976149;28;20213;-53
2022/05/20 08:01:03;;;;;;;10.07;5.47;;;;;;;25.42;56.36;99080.75;4975997;28;20233;-53
2022/05/20 08:06:38;;;;;;;7.80;5.55;;;;;;;25.68;54.82;99078.59;4976494;28;20196;-54
2022/05/20 08:09:06;;;;;;;6.20;5.10;;;;;;;25.76;55.48;99072.06;4975811;28;20209;-54
2022/05/20 08:11:34;;;;;;;7.85;5.07;;;;;;;25.93;54.57;99072.06;4974427;28;20317;-55
2022/05/20 08:14:02;;;;;;;9.10;5.60;;;;;;;25.96;53.22;99081.50;4974853;28;20582;-56
2022/05/20 08:16:29;;;;;;;10.33;5.40;;;;;;;26.00;52.80;99077.25;4975992;28;20706;-55
2022/05/20 08:18:56;;;;;;;7.57;5.80;;;;;;;26.01;53.09;99074.34;4975922;28;20191;-56
2022/05/20 08:21:24;;;;;;;10.68;5.47;;;;;;;26.00;54.32;99080.75;4975366;28;20223;-55
2022/05/20 08:23:50;;;;;;;9.32;6.00;;;;;;;26.19;51.52;99084.03;4975766;28;20188;-55
2022/05/20 08:26:18;;;;;;;10.20;5.70;;;;;;;26.27;52.17;99079.34;4975725;28;20267;-55
2022/05/20 08:28:48;;;;;;;7.75;5.53;;;;;;;26.20;52.71;99064.25;4971224;28;20573;-54
2022/05/20 08:31:16;;;;;;;9.18;5.68;;;;;;;26.37;52.00;99066.13;4968994;28;20888;-54
2022/05/20 08:33:43;;;;;;;11.35;5.40;;;;;;;26.57;51.74;99065.59;4974302;28;20196;-56
2022/05/20 08:36:09;;;;;;;9.80;5.20;;;;;;;26.70;50.31;99061.78;4975458;28;20193;-52
2022/05/20 08:38:37;;;;;;;10.50;5.00;;;;;;;26.84;50.23;99056.13;4974276;28;20675;-53
2022/05/20 08:41:05;;;;;;;8.77;5.05;;;;;;;26.86;50.40;99056.66;4975500;28;20581;-54
2022/05/20 08:43:34;;;;;;;11.60;5.35;;;;;;;26.87;49.26;99052.94;4975424;28;20587;-53
2022/05/20 08:46:08;;;;;;;7.88;5.35;;;;;;;26.83;49.95;99046.47;4975530;28;20198;-56
2022/05/20 08:48:35;;;;;;;12.13;5.47;;;;;;;26.84;49.52;99046.19;4975784;28;20704;-53
2022/05/20 08:51:03;;;;;;;7.47;4.90;;;;;;;26.68;48.29;99042.47;4975322;28;20186;-55
2022/05/20 08:53:35;;;;;;;11.43;5.20;;;;;;;26.70;47.02;99043.03;4975050;28;20197;-55
2022/05/20 08:56:24;;;;;;;10.90;4.90;;;;;;;26.47;48.61;99052.09;4975677;28;20681;-53
2022/05/20 08:58:54;;;;;;;7.00;4.70;;;;;;;26.47;47.91;99047.53;4975165;28;20565;-56
2022/05/20 09:01:32;;;;;;;10.50;4.77;;;;;;;26.41;45.45;99037.03;4974771;28;20228;-53
2022/05/20 09:03:59;;;;;;;12.03;4.73;;;;;;;26.55;46.48;99032.13;4975122;28;20686;-53
2022/05/20 09:06:27;;;;;;;8.27;4.90;;;;;;;26.63;46.38;99035.16;4973714;28;20295;-55
2022/05/20 09:09:08;;;;;;;7.00;4.82;;;;;;;26.78;46.19;99031.91;4975009;28;20656;-53
2022/05/20 09:11:35;;;;;;;5.65;4.38;;;;;;;26.79;44.44;99014.78;4974486;28;20236;-55
2022/05/20 09:17:02;;;;;;;11.68;4.68;;;;;;;26.84;43.94;99005.22;4974879;28;20216;-54
2022/05/20 09:19:29;;;;;;;6.43;3.73;;;;;;;27.00;42.57;99011.56;4973603;28;20212;-52
2022/05/20 09:22:03;;;;;;;8.13;3.85;;;;;;;27.00;42.50;99017.75;4972872;28;20223;-56
2022/05/20 09:24:38;;;;;;;7.88;4.68;;;;;;;27.01;41.88;99014.00;4974853;28;20225;-56
2022/05/20 09:27:08;;;;;;;5.55;4.10;;;;;;;27.21;41.75;99002.72;4974928;28;20280;-55
2022/05/20 09:29:39;;;;;;;6.65;3.88;;;;;;;27.23;42.59;99011.31;4973354;28;20656;-55
2022/05/20 09:32:22;;;;;;;11.85;3.95;;;;;;;27.24;42.07;99001.38;4974241;28;20223;-55
2022/05/20 09:34:58;;;;;;;4.80;3.60;;;;;;;27.06;41.74;99000.66;4974506;28;20195;-53
2022/05/20 09:37:28;;;;;;;7.80;3.67;;;;;;;27.22;39.39;98995.47;4974529;28;20189;-55
2022/05/20 09:39:57;;;;;;;6.63;3.40;;;;;;;27.39;39.42;99006.91;4974454;28;20191;-55
2022/05/20 09:42:27;;;;;;;7.95;3.70;;;;;;;27.56;38.12;98992.63;4974108;28;20217;-55
2022/05/20 09:44:56;;;;;;;11.57;3.15;;;;;;;27.75;37.89;99000.31;4974180;28;20192;-52
2022/05/20 09:47:32;;;;;;;8.40;3.08;;;;;;;27.73;36.44;99005.09;4974372;28;20192;-53
2022/05/20 09:50:05;;;;;;;6.57;3.63;;;;;;;27.89;35.85;99016.75;4974531;28;20185;-53
2022/05/20 09:52:41;;;;;;;9.43;3.15;;;;;;;27.77;37.37;99017.75;4967108;28;20311;-51
2022/05/20 09:55:14;;;;;;;5.65;2.63;;;;;;;27.85;36.83;99011.91;4973756;28;20281;-52
2022/05/20 09:57:43;;;;;;;10.27;3.10;;;;;;;27.72;35.70;99004.28;4973963;28;20196;-51
2022/05/20 10:00:17;;;;;;;11.07;3.85;;;;;;;27.83;35.04;98983.75;4973726;28;20199;-54
2022/05/20 10:02:55;;;;;;;8.23;3.20;;;;;;;28.09;36.27;99005.41;4973563;28;20573;-53
2022/05/20 10:05:30;;;;;;;8.40;3.08;;;;;;;28.29;34.85;99000.19;4973839;28;20272;-52
2022/05/20 10:08:06;;;;;;;9.00;3.45;;;;;;;28.52;34.96;99002.75;4973641;28;20195;-53
2022/05/20 10:10:46;;;;;;;7.40;2.92;;;;;;;28.49;34.25;98985.25;4973537;28;20271;-51
2022/05/20 10:13:25;;;;;;;9.52;4.07;;;;;;;28.49;34.18;98993.31;4969464;28;20231;-54
2022/05/20 10:16:03;;;;;;;8.45;3.53;;;;;;;28.55;34.76;98988.78;4971478;28;20300;-51
2022/05/20 10:18:38;;;;;;;11.43;3.38;;;;;;;28.81;35.21;98991.59;4973649;28;20577;-54
2022/05/20 10:21:16;;;;;;;6.80;3.30;;;;;;;29.07;33.66;98994.38;4973202;28;20289;-52
2022/05/20 10:23:52;;;;;;;6.32;3.55;;;;;;;29.74;32.94;98995.34;4973604;28;20196;-53
2022/05/20 10:26:34;;;;;;;4.03;3.20;;;;;;;29.38;33.54;98994.50;4973326;28;20192;-52
2022/05/20 10:34:43;;;;;;;7.28;3.63;;;;;;;30.06;33.73;98971.13;4973241;28;20194;-50
2022/05/20 10:37:22;;;;;;;8.70;3.38;;;;;;;29.99;33.66;98957.94;4980650;28;20221;-51
2022/05/20 10:40:33;;;;;;;10.07;3.85;;;;;;;30.15;33.09;98931.81;4973218;28;20201;-53
2022/05/20 10:43:14;;;;;;;6.88;3.22;;;;;;;30.70;33.36;98926.53;4876572;29;20221;-54
2022/05/20 10:48:59;;;;;;;7.03;2.90;;;;;;;30.21;33.25;98890.31;4916367;28;20209;-53
2022/05/20 10:52:02;;;;;;;7.93;3.55;;;;;;;30.73;31.58;98855.91;4972579;28;20265;-51
2022/05/20 10:54:53;;;;;;;6.68;3.33;;;;;;;30.71;30.96;98819.53;4972899;28;20198;-54
2022/05/20 10:57:40;;;;;;;11.13;3.45;;;;;;;30.23;32.07;98798.53;4961161;28;20212;-54
2022/05/20 11:00:13;;;;;;;6.55;3.08;;;;;;;30.40;32.17;98817.81;4973040;28;20276;-50
2022/05/20 11:03:05;;;;;;;6.45;3.40;;;;;;;30.70;30.33;98856.47;4972942;28;20224;-51
2022/05/20 11:05:49;;;;;;;10.25;3.40;;;;;;;30.88;30.21;98856.88;4973041;28;20186;-54
2022/05/20 11:08:34;;;;;;;5.82;3.10;;;;;;;30.59;32.00;98846.84;4972936;28;20190;-53
2022/05/20 11:11:17;;;;;;;8.57;3.35;;;;;;;30.62;32.14;98830.91;4971492;28;20204;-54
2022/05/20 11:14:08;;;;;;;7.72;3.72;;;;;;;30.72;30.62;98819.28;4972485;28;20201;-54
2022/05/20 11:16:56;;;;;;;7.90;3.88;;;;;;;30.14;31.37;98819.84;4972351;28;20202;-53
2022/05/20 11:19:53;;;;;;;9.40;3.10;;;;;;;30.22;31.59;98821.13;4971786;28;20194;-52
2022/05/20 11:22:41;;;;;;;7.35;3.58;;;;;;;30.38;31.84;98808.41;4972045;28;20221;-51
2022/05/20 11:25:25;;;;;;;8.45;3.90;;;;;;;30.38;32.68;98803.00;4975873;28;20452;-52
2022/05/20 11:28:28;;;;;;;8.07;3.80;;;;;;;30.49;32.63;98796.47;4953798;29;20679;-54
2022/05/20 11:31:07;;;;;;;10.70;3.33;;;;;;;30.37;33.70;98788.75;4951750;28;20294;-51
2022/05/20 11:34:00;;;;;;;11.18;3.78;;;;;;;30.50;33.00;98787.31;4953706;28;20199;-52
2022/05/20 11:36:49;;;;;;;5.38;3.25;;;;;;;30.27;32.20;98778.03;4953738;29;20187;-51
2022/05/20 11:39:41;;;;;;;7.85;3.63;;;;;;;30.19;32.15;98776.75;4952331;29;20663;-51
2022/05/20 11:42:19;;;;;;;7.85;3.80;;;;;;;30.00;32.54;98763.09;4953266;29;20762;-51
2022/05/20 11:45:09;;;;;;;7.88;3.20;;;;;;;29.92;33.77;98763.63;4961185;28;20651;-51
2022/05/20 11:48:25;;;;;;;7.57;3.35;;;;;;;30.14;35.12;98755.25;4978718;28;20201;-51
2022/05/20 11:51:23;;;;;;;9.85;3.60;;;;;;;30.25;32.59;98742.50;4949440;28;20205;-54
2022/05/20 11:54:14;;;;;;;12.43;3.55;;;;;;;30.17;33.27;98728.56;4960951;28;20209;-51
2022/05/20 11:56:45;;;;;;;9.75;3.85;;;;;;;30.39;33.90;98726.53;4968773;28;20222;-54
2022/05/20 11:59:21;;;;;;;9.10;3.83;;;;;;;30.16;32.96;98718.88;4971967;28;20198;-52
2022/05/20 12:01:51;;;;;;;7.95;3.50;;;;;;;30.45;35.24;98717.34;4955683;28;20746;-52
2022/05/20 12:04:22;;;;;;;5.82;3.85;;;;;;;30.56;33.36;98705.41;4953368;29;20607;-51
2022/05/20 12:06:53;;;;;;;9.02;3.42;;;;;;;30.63;34.75;98708.59;4953333;29;20658;-53
2022/05/20 12:09:34;;;;;;;7.53;3.75;;;;;;;30.65;34.81;98711.03;4954646;28;20190;-52
2022/05/20 12:12:16;;;;;;;10.43;4.20;;;;;;;30.65;34.54;98705.66;4956477;29;20602;-53
2022/05/20 12:15:01;;;;;;;6.47;3.80;;;;;;;30.71;34.52;98692.94;4956560;29;20576;-51
2022/05/20 12:17:33;;;;;;;10.32;4.00;;;;;;;30.83;34.02;98693.34;4956707;29;20221;-51
2022/05/20 12:26:37;;;;;;;11.30;3.63;;;;;;;31.00;32.32;98665.97;4956688;29;20229;-53
2022/05/20 12:29:49;;;;;;;8.27;3.88;;;;;;;31.21;33.40;98671.16;4954257;29;20284;-51
2022/05/20 12:32:43;;;;;;;14.63;3.67;;;;;;;31.32;32.33;98666.47;4941701;28;20218;-52
2022/05/20 12:35:13;;;;;;;7.32;3.60;;;;;;;31.61;33.46;98655.59;4954310;28;20209;-50
2022/05/20 12:38:22;;;;;;;7.30;3.53;;;;;;;31.69;29.28;98639.84;4956299;29;20187;-51
2022/05/20 12:40:55;;;;;;;10.15;3.45;;;;;;;32.08;30.18;98641.47;4956305;29;20193;-52
2022/05/20 12:44:01;;;;;;;9.30;3.53;;;;;;;32.20;27.94;98636.44;4956289;28;20210;-52